Time;durP1;ratioP1;P1;durP2;ratioP2;P2;SDS_P1;SDS_P2;PMS_P1;PMS_P2;Temp;Humidity;BMP_temperature;BMP_pressure;BME280_temperature;BME280_humidity;BME280_pressure;Samples;Min_cycle;Max_cycle;Signal;HPM_P1;HPM_P2
2021/03/02 00:01:12;;;;;;;25.80;11.82;;;7.20;95.90;;;;;;5042362;28;20674;-75
2021/03/02 00:03:39;;;;;;;25.33;12.13;;;7.20;95.60;;;;;;5037371;28;20066;-77
2021/03/02 00:06:08;;;;;;;23.95;11.73;;;7.20;95.80;;;;;;5037615;28;20048;-73
2021/03/02 00:08:38;;;;;;;25.35;11.70;;;7.20;95.90;;;;;;5043817;28;20503;-74
2021/03/02 00:11:05;;;;;;;26.25;12.43;;;7.10;95.90;;;;;;5045147;28;20036;-74
2021/03/02 00:13:32;;;;;;;24.92;13.25;;;7.10;96.10;;;;;;5042668;28;20107;-74
2021/03/02 00:16:03;;;;;;;27.30;12.93;;;7.10;96.20;;;;;;5040399;28;20032;-73
2021/03/02 00:18:45;;;;;;;29.98;12.32;;;7.10;96.40;;;;;;5041932;28;20053;-73
2021/03/02 00:21:17;;;;;;;23.20;11.93;;;7.10;96.30;;;;;;5037763;28;20219;-77
2021/03/02 00:23:46;;;;;;;24.95;11.13;;;7.10;96.10;;;;;;5031770;28;21161;-74
2021/03/02 00:26:15;;;;;;;26.55;11.45;;;7.10;96.10;;;;;;5024072;28;20030;-75
2021/03/02 00:28:42;;;;;;;22.92;11.45;;;7.00;96.10;;;;;;5026171;28;20099;-75
2021/03/02 00:31:09;;;;;;;24.25;11.40;;;7.00;96.20;;;;;;5042939;28;20039;-74
2021/03/02 00:33:36;;;;;;;23.70;12.65;;;7.00;96.40;;;;;;5043237;28;20082;-76
2021/03/02 00:36:01;;;;;;;23.65;11.85;;;6.90;96.60;;;;;;5050005;28;20037;-75
2021/03/02 00:38:27;;;;;;;25.65;12.13;;;;;;;;;;5046729;28;20047;-74
2021/03/02 00:40:55;;;;;;;22.75;12.13;;;6.80;96.60;;;;;;5040939;28;20055;-75
2021/03/02 00:43:20;;;;;;;28.15;12.85;;;6.80;96.90;;;;;;5042459;28;20111;-73
2021/03/02 00:45:46;;;;;;;25.40;12.63;;;6.80;97.00;;;;;;5043337;28;20100;-75
2021/03/02 00:48:12;;;;;;;23.08;11.38;;;6.80;96.90;;;;;;5039465;28;20743;-74
2021/03/02 00:50:37;;;;;;;28.05;12.80;;;6.70;97.10;;;;;;5039400;28;20097;-74
2021/03/02 00:53:03;;;;;;;30.95;13.10;;;6.70;97.30;;;;;;5040407;28;20601;-74
2021/03/02 00:55:29;;;;;;;23.30;11.63;;;6.70;97.10;;;;;;5043121;28;20214;-75
2021/03/02 00:57:55;;;;;;;24.67;12.18;;;6.70;97.30;;;;;;5039511;28;20115;-75
2021/03/02 01:00:21;;;;;;;24.60;11.52;;;6.60;97.10;;;;;;5039209;28;20070;-73
2021/03/02 01:02:47;;;;;;;23.52;11.85;;;6.60;97.10;;;;;;5041159;28;20418;-74
2021/03/02 01:05:13;;;;;;;24.33;12.15;;;6.60;97.30;;;;;;5038765;28;20040;-75
2021/03/02 01:07:39;;;;;;;26.13;12.57;;;6.60;97.30;;;;;;5039179;28;20180;-75
2021/03/02 01:10:07;;;;;;;24.13;12.07;;;6.60;97.30;;;;;;5042865;28;20104;-74
2021/03/02 01:12:32;;;;;;;21.10;10.48;;;6.60;97.40;;;;;;5049234;28;20045;-75
2021/03/02 01:15:00;;;;;;;20.27;11.05;;;6.50;97.50;;;;;;5040855;28;20059;-75
2021/03/02 01:17:27;;;;;;;19.88;11.00;;;6.50;97.50;;;;;;5042070;28;20055;-74
2021/03/02 01:19:52;;;;;;;20.55;10.82;;;6.50;97.70;;;;;;5036746;28;20037;-74
2021/03/02 01:22:19;;;;;;;25.63;12.00;;;6.50;97.60;;;;;;5035527;28;20032;-76
2021/03/02 01:24:45;;;;;;;22.70;12.35;;;6.50;97.60;;;;;;5038877;28;20030;-75
2021/03/02 01:27:11;;;;;;;26.35;13.52;;;6.40;97.60;;;;;;5038609;28;20052;-73
2021/03/02 01:29:37;;;;;;;26.25;11.40;;;;;;;;;;5036783;28;20132;-74
2021/03/02 01:32:03;;;;;;;22.55;11.85;;;6.40;97.40;;;;;;5038210;28;20108;-74
2021/03/02 01:34:29;;;;;;;22.55;11.13;;;6.40;97.50;;;;;;5036858;28;20049;-75
2021/03/02 01:36:55;;;;;;;22.85;11.70;;;6.40;97.80;;;;;;5041111;28;20051;-74
2021/03/02 01:39:23;;;;;;;24.85;11.52;;;6.30;97.60;;;;;;5041360;28;20048;-74
2021/03/02 01:41:54;;;;;;;21.73;11.82;;;6.30;97.80;;;;;;5035522;28;20045;-73
2021/03/02 01:44:20;;;;;;;22.75;10.90;;;6.30;97.90;;;;;;5035595;28;20506;-73
2021/03/02 01:46:48;;;;;;;20.98;11.20;;;6.10;98.00;;;;;;5036813;28;20044;-76
2021/03/02 01:49:15;;;;;;;23.70;11.38;;;6.10;98.10;;;;;;5043000;28;20051;-75
2021/03/02 01:51:41;;;;;;;22.15;10.85;;;6.50;98.30;;;;;;5045532;28;20163;-75
2021/03/02 01:54:07;;;;;;;24.92;11.55;;;;;;;;;;5038440;28;20041;-74
2021/03/02 01:56:32;;;;;;;22.95;10.88;;;6.00;98.10;;;;;;5038130;28;20049;-75
2021/03/02 01:58:58;;;;;;;23.05;11.43;;;6.00;98.30;;;;;;5040526;28;20045;-74
2021/03/02 02:01:25;;;;;;;25.00;11.27;;;;;;;;;;5036946;28;20040;-75
2021/03/02 02:04:13;;;;;;;23.45;11.73;;;5.90;98.40;;;;;;5045788;28;20068;-74
2021/03/02 02:06:49;;;;;;;23.20;11.45;;;5.90;98.50;;;;;;5050961;28;20033;-73
2021/03/02 02:09:24;;;;;;;25.02;11.80;;;5.90;98.60;;;;;;5051826;28;20134;-75
2021/03/02 02:12:12;;;;;;;24.83;11.40;;;5.80;98.60;;;;;;5052484;28;20025;-76
2021/03/02 02:15:33;;;;;;;23.38;12.02;;;5.80;98.80;;;;;;5056304;28;20044;-75
2021/03/02 02:18:08;;;;;;;23.70;11.55;;;5.80;98.90;;;;;;5024251;28;20128;-75
2021/03/02 02:20:41;;;;;;;22.63;11.38;;;5.80;98.90;;;;;;5048668;28;20371;-74
2021/03/02 02:23:13;;;;;;;23.80;12.10;;;5.80;99.00;;;;;;5047315;28;20032;-74
2021/03/02 02:25:50;;;;;;;22.13;11.27;;;5.80;99.10;;;;;;5043363;28;20280;-74
2021/03/02 02:28:19;;;;;;;24.33;10.82;;;5.70;98.90;;;;;;5032701;28;20039;-75
2021/03/02 02:30:57;;;;;;;22.17;11.02;;;5.70;98.90;;;;;;5045189;28;20036;-74
2021/03/02 02:33:30;;;;;;;22.90;9.98;;;5.70;98.90;;;;;;5044993;28;20461;-74
2021/03/02 02:35:59;;;;;;;21.35;11.50;;;5.60;98.90;;;;;;5042754;28;20048;-74
2021/03/02 02:38:24;;;;;;;23.40;11.32;;;5.60;99.00;;;;;;5044091;28;20037;-75
2021/03/02 02:40:50;;;;;;;25.80;11.45;;;;;;;;;;5042372;28;20039;-75
2021/03/02 02:43:18;;;;;;;20.33;11.13;;;5.40;99.40;;;;;;5046085;28;20100;-73
2021/03/02 02:45:46;;;;;;;24.23;11.20;;;5.40;99.60;;;;;;5039212;28;21441;-73
2021/03/02 02:48:13;;;;;;;20.88;11.13;;;5.40;99.50;;;;;;5040711;28;20040;-74
2021/03/02 02:50:39;;;;;;;22.20;11.27;;;5.30;99.50;;;;;;5049572;28;20432;-75
2021/03/02 02:53:06;;;;;;;22.58;11.32;;;5.30;99.80;;;;;;5052018;28;20045;-74
2021/03/02 02:55:46;;;;;;;20.27;10.60;;;5.30;99.80;;;;;;5048325;28;20581;-76
2021/03/02 02:58:16;;;;;;;22.40;11.40;;;5.30;99.90;;;;;;5047594;28;20502;-75
2021/03/02 03:00:43;;;;;;;29.40;12.52;;;5.20;99.90;;;;;;5051723;28;20344;-73
2021/03/02 03:03:14;;;;;;;26.13;12.27;;;5.20;99.90;;;;;;5040730;28;20033;-73
2021/03/02 03:05:44;;;;;;;24.08;12.20;;;5.20;99.90;;;;;;5038246;28;20053;-75
2021/03/02 03:08:17;;;;;;;24.10;11.65;;;5.10;99.90;;;;;;5030523;28;20037;-73
2021/03/02 03:10:46;;;;;;;21.40;11.93;;;5.20;99.90;;;;;;5038913;28;20487;-77
2021/03/02 03:13:17;;;;;;;25.60;12.20;;;5.10;99.90;;;;;;5042541;28;20120;-75
2021/03/02 03:15:49;;;;;;;22.58;12.25;;;5.10;99.90;;;;;;5044829;28;20784;-75
2021/03/02 03:18:18;;;;;;;28.27;13.15;;;5.10;99.90;;;;;;5043084;28;20148;-75
2021/03/02 03:20:48;;;;;;;22.17;11.70;;;5.10;99.90;;;;;;5041182;28;20041;-74
2021/03/02 03:23:15;;;;;;;22.65;11.85;;;5.10;99.90;;;;;;5044762;28;20032;-75
2021/03/02 03:25:40;;;;;;;23.55;12.07;;;5.10;99.90;;;;;;5042244;28;20033;-76
2021/03/02 03:28:07;;;;;;;24.27;11.65;;;5.10;99.90;;;;;;5044413;28;20122;-74
2021/03/02 03:30:34;;;;;;;22.02;11.70;;;5.10;99.90;;;;;;5040559;28;20514;-75
2021/03/02 03:33:05;;;;;;;24.70;11.68;;;5.10;99.90;;;;;;5045785;28;20045;-75
2021/03/02 03:35:33;;;;;;;20.50;11.75;;;5.10;99.90;;;;;;5042755;28;20053;-74
2021/03/02 03:37:59;;;;;;;22.17;11.70;;;5.10;99.90;;;;;;5044710;28;20036;-74
2021/03/02 03:40:24;;;;;;;25.45;11.57;;;5.00;99.90;;;;;;5027523;28;20092;-74
2021/03/02 03:42:50;;;;;;;22.92;11.70;;;;;;;;;;5041795;28;20041;-74
2021/03/02 03:45:17;;;;;;;23.50;11.32;;;5.00;99.90;;;;;;5037971;28;20067;-74
2021/03/02 03:47:44;;;;;;;23.92;12.05;;;5.00;99.90;;;;;;5041757;28;20044;-74
2021/03/02 03:50:10;;;;;;;21.67;11.30;;;5.00;99.90;;;;;;5041487;28;20053;-75
2021/03/02 03:52:40;;;;;;;22.85;12.45;;;4.90;99.90;;;;;;5041798;28;20048;-75
2021/03/02 03:55:08;;;;;;;21.40;11.60;;;4.90;99.90;;;;;;5040455;28;20522;-75
2021/03/02 03:57:34;;;;;;;26.92;13.10;;;4.90;99.90;;;;;;5044111;28;20481;-74
2021/03/02 04:00:01;;;;;;;23.98;12.60;;;4.90;99.90;;;;;;5035867;28;20033;-73
2021/03/02 04:02:29;;;;;;;24.35;11.52;;;4.90;99.90;;;;;;5038827;28;20667;-73
2021/03/02 04:04:56;;;;;;;25.00;12.60;;;4.90;99.90;;;;;;5039828;28;20073;-74
2021/03/02 04:07:22;;;;;;;22.70;12.05;;;4.80;99.90;;;;;;5041005;28;20447;-74
2021/03/02 04:09:49;;;;;;;23.33;11.57;;;4.80;99.90;;;;;;5042375;28;20619;-75
2021/03/02 04:12:15;;;;;;;23.50;11.90;;;4.80;99.90;;;;;;5038477;28;20045;-75
2021/03/02 04:14:42;;;;;;;24.13;12.40;;;4.70;99.90;;;;;;5037580;28;20151;-75
2021/03/02 04:17:11;;;;;;;23.38;12.20;;;4.60;99.90;;;;;;5042430;28;20029;-75
2021/03/02 04:19:37;;;;;;;21.15;11.27;;;4.60;99.90;;;;;;5043031;28;20029;-74
2021/03/02 04:22:03;;;;;;;26.63;13.85;;;4.60;99.90;;;;;;5042195;28;20064;-75
2021/03/02 04:24:29;;;;;;;26.73;14.20;;;4.60;99.90;;;;;;5032839;28;20040;-75
2021/03/02 04:26:56;;;;;;;26.95;13.45;;;4.50;99.90;;;;;;5031194;28;20053;-74
2021/03/02 04:29:22;;;;;;;27.15;14.40;;;4.50;99.90;;;;;;5030854;28;20053;-76
2021/03/02 04:31:48;;;;;;;24.58;12.32;;;4.50;99.90;;;;;;5036398;28;20139;-74
2021/03/02 04:34:14;;;;;;;24.88;12.20;;;4.50;99.90;;;;;;5041564;28;20067;-75
2021/03/02 04:36:41;;;;;;;30.20;12.80;;;4.50;99.90;;;;;;5039081;28;20394;-73
2021/03/02 04:39:06;;;;;;;26.60;13.20;;;4.40;99.90;;;;;;5038765;28;20037;-76
2021/03/02 04:41:34;;;;;;;24.95;13.75;;;4.40;99.90;;;;;;5039647;28;20025;-74
2021/03/02 04:44:00;;;;;;;27.08;13.60;;;4.50;99.90;;;;;;5039534;28;20556;-75
2021/03/02 04:46:26;;;;;;;27.05;14.27;;;;;;;;;;5039334;28;20037;-74
2021/03/02 04:48:52;;;;;;;31.30;15.18;;;4.40;99.90;;;;;;5041846;28;20095;-75
2021/03/02 04:51:18;;;;;;;27.10;13.98;;;4.50;99.90;;;;;;5037803;28;20404;-75
2021/03/02 04:53:45;;;;;;;25.70;13.32;;;4.40;99.90;;;;;;5039832;28;20143;-75
2021/03/02 04:56:10;;;;;;;22.95;12.25;;;4.40;99.90;;;;;;5042394;28;20041;-75
2021/03/02 04:58:36;;;;;;;29.05;13.43;;;4.40;99.90;;;;;;5039523;28;20029;-74
2021/03/02 05:01:02;;;;;;;26.50;13.32;;;4.40;99.90;;;;;;5038650;28;20055;-76
2021/03/02 05:03:28;;;;;;;26.50;13.57;;;4.40;99.90;;;;;;5040188;28;20120;-75
2021/03/02 05:05:53;;;;;;;27.23;13.35;;;4.40;99.90;;;;;;5040562;28;20092;-74
2021/03/02 05:08:19;;;;;;;25.45;13.45;;;4.40;99.90;;;;;;5034199;28;20086;-74
2021/03/02 05:10:45;;;;;;;26.10;13.65;;;4.40;99.90;;;;;;5034716;28;20048;-76
2021/03/02 05:13:11;;;;;;;28.27;14.70;;;4.30;99.90;;;;;;5030274;28;20056;-76
2021/03/02 05:15:37;;;;;;;24.08;14.35;;;4.30;99.90;;;;;;5036729;28;20034;-74
2021/03/02 05:18:03;;;;;;;27.73;14.55;;;4.30;99.90;;;;;;5042775;28;20052;-76
2021/03/02 05:20:29;;;;;;;30.67;14.85;;;4.20;99.90;;;;;;5039413;28;20044;-75
2021/03/02 05:22:55;;;;;;;28.58;15.27;;;4.30;99.90;;;;;;5040535;28;20037;-75
2021/03/02 05:25:21;;;;;;;29.92;14.98;;;4.20;99.90;;;;;;5022624;28;20064;-74
2021/03/02 05:27:47;;;;;;;30.00;15.95;;;4.20;99.90;;;;;;5041645;28;20303;-75
2021/03/02 05:30:14;;;;;;;28.27;15.23;;;4.20;99.90;;;;;;5037025;28;20131;-76
2021/03/02 05:32:39;;;;;;;30.42;15.68;;;4.10;99.90;;;;;;5041218;28;20037;-73
2021/03/02 05:35:06;;;;;;;31.10;15.73;;;4.10;99.90;;;;;;5036944;28;20522;-75
2021/03/02 05:37:32;;;;;;;30.05;15.30;;;4.10;99.90;;;;;;5034158;28;20857;-74
2021/03/02 05:39:58;;;;;;;25.48;14.50;;;4.10;99.90;;;;;;5046433;28;20029;-74
2021/03/02 05:42:23;;;;;;;29.52;15.73;;;4.10;99.90;;;;;;5044891;28;20104;-75
2021/03/02 05:44:50;;;;;;;32.08;13.63;;;4.10;99.90;;;;;;5038850;28;20503;-76
2021/03/02 05:47:17;;;;;;;26.08;13.00;;;4.10;99.90;;;;;;5036708;28;20041;-74
2021/03/02 05:49:43;;;;;;;32.22;15.45;;;4.20;99.90;;;;;;5040815;28;20068;-74
2021/03/02 05:52:12;;;;;;;23.63;12.88;;;4.20;99.90;;;;;;5049488;28;20569;-76
2021/03/02 05:54:39;;;;;;;23.45;12.80;;;4.20;99.90;;;;;;5047197;28;20129;-74
2021/03/02 05:57:06;;;;;;;24.85;12.93;;;4.20;99.90;;;;;;5040562;28;20040;-74
2021/03/02 05:59:32;;;;;;;25.08;13.18;;;4.20;99.90;;;;;;5043019;28;20025;-76
2021/03/02 06:01:58;;;;;;;28.83;13.68;;;4.20;99.90;;;;;;5039334;28;20033;-75
2021/03/02 06:04:25;;;;;;;22.65;12.05;;;4.20;99.90;;;;;;5042920;28;20437;-74
2021/03/02 06:06:59;;;;;;;27.88;13.40;;;4.10;99.90;;;;;;5043770;28;20059;-75
2021/03/02 06:09:24;;;;;;;25.98;13.57;;;4.10;99.90;;;;;;5042106;28;20041;-75
2021/03/02 06:12:01;;;;;;;28.13;14.38;;;4.10;99.90;;;;;;5042854;28;20056;-74
2021/03/02 06:14:28;;;;;;;32.88;15.27;;;4.00;99.90;;;;;;5040500;28;20040;-75
2021/03/02 06:16:55;;;;;;;28.05;15.25;;;4.00;99.90;;;;;;5042855;28;20044;-74
2021/03/02 06:19:40;;;;;;;28.90;15.50;;;4.00;99.90;;;;;;5040324;28;20537;-74
2021/03/02 06:22:07;;;;;;;30.83;15.77;;;4.00;99.90;;;;;;5045454;28;20029;-74
2021/03/02 06:24:41;;;;;;;28.75;15.52;;;3.90;99.90;;;;;;5042611;28;20518;-75
2021/03/02 06:27:13;;;;;;;28.50;16.58;;;4.00;99.90;;;;;;5044771;28;20021;-74
2021/03/02 06:29:40;;;;;;;33.38;16.35;;;4.00;99.90;;;;;;5042747;28;20079;-76
2021/03/02 06:32:06;;;;;;;31.50;16.35;;;4.00;99.90;;;;;;5038805;28;20029;-73
2021/03/02 06:34:32;;;;;;;29.58;15.95;;;4.00;99.90;;;;;;5039703;28;20502;-74
2021/03/02 06:36:59;;;;;;;28.00;15.38;;;4.00;99.90;;;;;;5044007;28;20029;-74
2021/03/02 06:39:29;;;;;;;28.17;14.40;;;4.00;99.90;;;;;;5041783;28;20037;-74
2021/03/02 06:42:18;;;;;;;27.13;13.35;;;4.00;99.90;;;;;;5039744;28;20048;-74
2021/03/02 06:44:45;;;;;;;28.90;14.68;;;4.00;99.90;;;;;;5043025;28;20510;-76
2021/03/02 06:47:13;;;;;;;31.00;16.10;;;4.00;99.90;;;;;;5042374;28;20403;-74
2021/03/02 06:49:43;;;;;;;31.23;15.80;;;4.10;99.90;;;;;;5040034;28;20034;-74
2021/03/02 06:52:19;;;;;;;32.72;15.98;;;4.10;99.90;;;;;;5041805;28;20025;-74
2021/03/02 06:54:46;;;;;;;31.05;16.45;;;4.10;99.90;;;;;;5034847;28;20396;-75
2021/03/02 06:57:18;;;;;;;31.15;16.10;;;4.10;99.90;;;;;;5040124;28;20026;-75
2021/03/02 06:59:52;;;;;;;36.45;17.50;;;4.20;99.90;;;;;;5051553;28;20037;-74
2021/03/02 07:02:50;;;;;;;34.30;17.48;;;4.20;99.90;;;;;;5038103;28;20048;-75
2021/03/02 07:05:19;;;;;;;31.20;16.63;;;4.20;99.90;;;;;;5000820;28;20134;-75
2021/03/02 07:07:55;;;;;;;36.05;17.60;;;4.30;99.90;;;;;;5042460;28;20033;-75
2021/03/02 07:10:22;;;;;;;31.45;16.92;;;4.30;99.90;;;;;;5035162;28;20556;-74
2021/03/02 07:12:48;;;;;;;28.55;15.63;;;4.40;99.90;;;;;;5040114;28;20041;-75
2021/03/02 07:15:19;;;;;;;30.40;15.63;;;4.50;99.90;;;;;;5038042;28;20040;-74
2021/03/02 07:17:49;;;;;;;32.53;15.85;;;4.50;99.90;;;;;;5036765;28;20116;-74
2021/03/02 07:20:23;;;;;;;32.55;15.95;;;4.50;99.90;;;;;;5032613;28;20037;-76
2021/03/02 07:22:53;;;;;;;32.08;15.52;;;4.40;99.90;;;;;;5043439;28;20116;-76
2021/03/02 07:25:21;;;;;;;33.90;15.13;;;5.00;99.90;;;;;;5042048;28;20029;-75
2021/03/02 07:27:49;;;;;;;33.30;15.05;;;4.70;99.90;;;;;;5040160;28;20017;-76
2021/03/02 07:30:16;;;;;;;37.92;15.10;;;4.80;99.90;;;;;;5041760;28;20037;-76
2021/03/02 07:32:43;;;;;;;38.97;15.20;;;4.80;99.90;;;;;;5046206;28;20112;-76
2021/03/02 07:35:30;;;;;;;33.72;15.27;;;4.80;99.90;;;;;;5040498;28;20041;-75
2021/03/02 07:38:16;;;;;;;32.47;16.23;;;4.90;99.90;;;;;;5036663;28;20118;-76
2021/03/02 07:40:53;;;;;;;37.92;16.75;;;5.00;99.90;;;;;;5041843;28;20027;-76
2021/03/02 07:43:32;;;;;;;36.95;16.50;;;5.10;99.90;;;;;;5040738;28;20040;-74
2021/03/02 07:45:59;;;;;;;43.72;17.25;;;5.10;99.90;;;;;;5022666;28;20029;-75
2021/03/02 07:48:26;;;;;;;33.97;16.00;;;5.20;99.90;;;;;;5041337;28;20092;-75
2021/03/02 07:51:15;;;;;;;34.33;17.08;;;5.30;99.90;;;;;;5033690;28;20051;-77
2021/03/02 07:53:42;;;;;;;32.63;14.93;;;5.40;99.90;;;;;;5037765;28;20037;-75
2021/03/02 07:56:19;;;;;;;39.33;15.55;;;5.40;99.90;;;;;;5034764;28;20029;-77
2021/03/02 07:59:05;;;;;;;38.53;16.17;;;5.50;99.90;;;;;;5040920;28;20394;-77
2021/03/02 08:01:32;;;;;;;27.33;15.18;;;5.70;99.90;;;;;;5035236;28;23596;-77
2021/03/02 08:04:16;;;;;;;34.88;16.08;;;5.80;99.90;;;;;;5016166;28;20437;-78
2021/03/02 08:06:52;;;;;;;30.55;15.20;;;5.80;99.70;;;;;;5032663;28;20029;-76
2021/03/02 08:09:24;;;;;;;26.10;14.73;;;6.00;99.60;;;;;;5029933;28;20066;-77
2021/03/02 08:11:50;;;;;;;33.22;14.32;;;6.10;99.60;;;;;;5051991;28;20048;-75
2021/03/02 08:14:16;;;;;;;35.40;13.65;;;;;;;;;;5033669;28;20044;-76
2021/03/02 08:17:07;;;;;;;31.55;15.55;;;6.40;99.10;;;;;;5039420;28;20775;-75
2021/03/02 08:19:34;;;;;;;;;;;6.40;99.30;;;;;;5037723;28;20041;-76
2021/03/02 08:22:01;;;;;;;24.42;12.07;;;6.80;98.40;;;;;;5033941;28;19956;-77
2021/03/02 08:24:57;;;;;;;25.15;12.02;;;6.90;98.00;;;;;;5036807;28;20037;-75
2021/03/02 08:27:44;;;;;;;18.95;10.43;;;7.20;97.40;;;;;;5048924;28;20025;-76
2021/03/02 08:30:11;;;;;;;23.88;10.48;;;;;;;;;;5035556;28;20024;-78
2021/03/02 08:32:39;;;;;;;28.23;12.05;;;7.50;96.70;;;;;;5032282;28;20029;-76
2021/03/02 08:35:08;;;;;;;21.20;11.00;;;7.50;96.40;;;;;;5036915;28;20079;-76
2021/03/02 08:37:41;;;;;;;20.70;9.75;;;;;;;;;;5033161;28;20509;-82
2021/03/02 08:40:08;;;;;;;17.05;9.77;;;;;;;;;;5016156;28;20401;-77
2021/03/02 08:42:34;;;;;;;18.23;9.30;;;;;;;;;;5042382;28;20045;-76
2021/03/02 08:45:10;;;;;;;16.13;9.82;;;8.40;93.90;;;;;;5037999;28;20044;-78
2021/03/02 08:47:37;;;;;;;19.02;10.00;;;8.40;94.30;;;;;;5035420;28;20566;-78
2021/03/02 08:50:04;;;;;;;18.38;10.02;;;8.40;94.10;;;;;;5033621;28;20081;-77
2021/03/02 08:52:42;;;;;;;17.10;10.13;;;8.50;93.90;;;;;;5035847;28;20508;-75
2021/03/02 08:55:09;;;;;;;15.88;10.07;;;8.60;93.60;;;;;;5037567;28;20045;-75
2021/03/02 08:58:01;;;;;;;17.73;10.80;;;8.70;93.40;;;;;;5038839;28;20041;-76
2021/03/02 09:00:27;;;;;;;17.13;10.43;;;8.90;92.60;;;;;;5033725;28;20836;-76
2021/03/02 09:02:53;;;;;;;16.98;9.68;;;8.90;92.80;;;;;;5017463;28;20064;-75
2021/03/02 09:05:19;;;;;;;18.20;10.93;;;9.00;92.80;;;;;;5036474;28;20041;-78
2021/03/02 09:08:07;;;;;;;19.88;10.10;;;9.10;92.50;;;;;;5029855;28;20037;-76
2021/03/02 09:10:33;;;;;;;16.90;10.18;;;9.30;91.40;;;;;;5034391;28;20094;-76
2021/03/02 09:12:59;;;;;;;17.77;10.07;;;9.30;91.70;;;;;;5032147;28;21146;-76
2021/03/02 09:15:39;;;;;;;20.08;9.75;;;9.40;91.40;;;;;;5036151;28;20037;-75
2021/03/02 09:18:15;;;;;;;17.52;10.13;;;9.60;91.30;;;;;;5033566;28;20033;-76
2021/03/02 09:20:56;;;;;;;33.75;10.10;;;9.70;90.30;;;;;;5035742;28;20150;-75
2021/03/02 09:23:23;;;;;;;19.17;10.68;;;9.70;90.40;;;;;;5033591;28;20525;-75
2021/03/02 09:25:52;;;;;;;15.20;9.55;;;9.90;89.90;;;;;;5031745;28;20225;-75
2021/03/02 09:28:19;;;;;;;15.23;9.65;;;10.00;89.40;;;;;;5016269;28;20041;-74
2021/03/02 09:30:45;;;;;;;19.98;10.68;;;10.00;89.90;;;;;;5025492;28;20066;-74
2021/03/02 09:33:17;;;;;;;17.25;9.82;;;10.10;88.80;;;;;;5028732;28;20095;-75
2021/03/02 09:35:42;;;;;;;16.58;9.43;;;10.10;87.60;;;;;;5023545;28;20032;-75
2021/03/02 09:38:26;;;;;;;19.00;10.85;;;10.20;88.50;;;;;;5017772;28;20041;-75
2021/03/02 09:40:52;;;;;;;16.98;9.75;;;10.40;86.60;;;;;;5034703;28;20502;-75
2021/03/02 09:43:18;;;;;;;16.83;9.55;;;10.50;87.10;;;;;;5031613;28;21979;-75
2021/03/02 09:45:54;;;;;;;17.60;10.48;;;10.70;86.10;;;;;;5034065;28;20549;-77
2021/03/02 09:48:20;;;;;;;21.27;10.27;;;10.60;84.50;;;;;;5028710;28;20453;-76
2021/03/02 09:50:46;;;;;;;16.02;9.90;;;10.70;84.00;;;;;;5031461;28;20876;-75
2021/03/02 09:53:17;;;;;;;16.73;10.15;;;10.70;83.50;;;;;;5032629;28;20053;-76
2021/03/02 09:55:45;;;;;;;18.10;10.68;;;10.80;82.60;;;;;;5032098;28;20041;-77
2021/03/02 09:58:18;;;;;;;16.02;10.20;;;10.90;82.50;;;;;;5029938;28;20072;-77
2021/03/02 10:00:52;;;;;;;16.33;10.07;;;11.00;82.30;;;;;;5033721;28;20025;-76
2021/03/02 10:03:26;;;;;;;21.55;9.55;;;11.10;80.00;;;;;;5034182;28;20033;-77
2021/03/02 10:05:56;;;;;;;15.43;9.50;;;11.20;79.10;;;;;;5032771;28;20041;-76
2021/03/02 10:08:24;;;;;;;;;;;11.30;78.10;;;;;;5039479;28;20570;-78
2021/03/02 10:10:52;;;;;;;16.67;8.27;;;11.40;77.30;;;;;;5035603;28;20003;-75
2021/03/02 10:13:32;;;;;;;16.67;9.98;;;11.50;76.80;;;;;;5039087;28;20127;-78
2021/03/02 10:16:16;;;;;;;15.98;9.50;;;11.50;75.40;;;;;;5038290;28;20350;-75
2021/03/02 10:18:51;;;;;;;15.98;9.63;;;11.60;75.50;;;;;;5033001;28;20035;-78
2021/03/02 10:21:17;;;;;;;15.98;9.57;;;11.80;75.00;;;;;;5043734;28;20096;-79
2021/03/02 10:24:00;;;;;;;14.70;9.25;;;11.80;73.70;;;;;;5032662;28;20038;-78
2021/03/02 10:26:28;;;;;;;15.88;10.10;;;11.70;73.50;;;;;;5038447;28;20465;-75
2021/03/02 10:28:54;;;;;;;14.07;9.35;;;11.90;73.10;;;;;;5039521;28;20037;-76
2021/03/02 10:31:20;;;;;;;18.27;9.77;;;12.00;72.20;;;;;;5044337;28;21118;-76
2021/03/02 10:33:47;;;;;;;17.83;9.63;;;12.00;71.80;;;;;;5042263;28;20494;-75
2021/03/02 10:36:34;;;;;;;16.92;10.20;;;12.10;71.20;;;;;;5038393;28;20517;-76
2021/03/02 10:39:01;;;;;;;16.25;9.60;;;12.70;79.30;;;;;;5042156;28;20368;-75
2021/03/02 10:41:28;;;;;;;16.45;9.57;;;12.40;71.50;;;;;;5038327;28;20041;-75
2021/03/02 10:43:55;;;;;;;16.50;9.38;;;12.60;69.70;;;;;;5038551;28;20076;-76
2021/03/02 10:46:27;;;;;;;16.45;9.57;;;12.70;68.60;;;;;;5041267;28;20068;-75
2021/03/02 10:48:52;;;;;;;16.67;9.15;;;12.80;66.50;;;;;;5036359;28;20128;-76
2021/03/02 10:51:19;;;;;;;18.38;9.88;;;12.90;66.50;;;;;;5034712;28;20124;-76
2021/03/02 10:53:45;;;;;;;19.25;10.18;;;12.80;65.50;;;;;;5030073;28;20064;-79
2021/03/02 10:56:11;;;;;;;16.50;9.13;;;13.80;66.60;;;;;;5035752;28;21064;-75
2021/03/02 10:58:41;;;;;;;17.75;9.38;;;;;;;;;;5036058;28;20086;-79
2021/03/02 11:01:07;;;;;;;17.98;9.35;;;13.20;63.90;;;;;;5039815;28;20033;-76
2021/03/02 11:03:32;;;;;;;21.15;10.93;;;13.20;64.50;;;;;;5037103;28;20028;-77
2021/03/02 11:05:58;;;;;;;22.25;12.10;;;13.50;62.80;;;;;;5037835;28;20535;-76
2021/03/02 11:08:24;;;;;;;15.40;9.55;;;;;;;;;;5040035;28;20063;-77
2021/03/02 11:10:50;;;;;;;16.17;8.98;;;13.60;62.30;;;;;;5037582;28;20602;-76
2021/03/02 11:13:20;;;;;;;18.35;9.52;;;;;;;;;;5041841;28;20036;-77
2021/03/02 11:15:46;;;;;;;19.60;9.85;;;13.80;61.70;;;;;;5035979;28;20434;-78
2021/03/02 11:18:13;;;;;;;12.65;8.55;;;14.20;59.50;;;;;;5040007;28;20045;-77
2021/03/02 11:20:39;;;;;;;15.10;8.55;;;14.80;57.30;;;;;;5042991;28;20082;-77
2021/03/02 11:23:05;;;;;;;15.25;8.63;;;14.80;58.10;;;;;;5041507;28;20033;-77
2021/03/02 11:25:31;;;;;;;17.80;9.75;;;15.30;56.00;;;;;;5027199;28;20061;-78
2021/03/02 11:27:57;;;;;;;19.60;9.70;;;15.70;53.50;;;;;;5036867;28;20091;-78
2021/03/02 11:30:23;;;;;;;18.42;9.73;;;16.10;53.20;;;;;;5042658;28;20048;-77
2021/03/02 11:32:49;;;;;;;16.80;10.15;;;16.40;51.00;;;;;;5039426;28;20028;-76
2021/03/02 11:35:16;;;;;;;19.25;10.07;;;16.20;50.80;;;;;;5042222;28;20041;-78
2021/03/02 11:37:42;;;;;;;21.40;9.77;;;16.30;51.40;;;;;;5038607;28;20042;-77
2021/03/02 11:40:11;;;;;;;15.02;9.25;;;17.50;52.10;;;;;;5027378;28;20641;-76
2021/03/02 11:42:37;;;;;;;16.02;9.10;;;15.90;51.30;;;;;;5041237;28;20076;-78
2021/03/02 11:45:06;;;;;;;18.70;9.70;;;15.50;51.10;;;;;;5041301;28;20048;-78
2021/03/02 11:47:32;;;;;;;16.65;8.90;;;15.30;53.00;;;;;;5039327;28;20063;-77
2021/03/02 11:49:59;;;;;;;16.75;9.68;;;15.10;53.80;;;;;;5039409;28;20041;-77
2021/03/02 11:52:24;;;;;;;16.05;8.63;;;15.10;53.40;;;;;;5035226;28;20033;-77
2021/03/02 11:54:50;;;;;;;20.27;9.38;;;15.20;52.60;;;;;;5034135;28;20510;-75
2021/03/02 11:57:17;;;;;;;16.52;8.52;;;15.00;52.70;;;;;;5002027;28;20045;-76
2021/03/02 11:59:43;;;;;;;15.68;8.50;;;15.00;53.30;;;;;;5018570;28;20044;-77
2021/03/02 12:02:13;;;;;;;18.77;10.07;;;15.20;53.10;;;;;;5035727;28;20033;-78
2021/03/02 12:04:39;;;;;;;16.00;8.98;;;15.50;57.10;;;;;;5046475;28;20490;-76
2021/03/02 12:07:05;;;;;;;17.48;9.27;;;15.40;52.00;;;;;;5044738;28;20040;-78
2021/03/02 12:09:31;;;;;;;17.85;9.13;;;15.50;51.70;;;;;;5046994;28;20470;-76
2021/03/02 12:11:57;;;;;;;18.70;9.50;;;15.50;52.30;;;;;;5033213;28;20426;-76
2021/03/02 12:14:23;;;;;;;17.10;8.68;;;15.60;51.80;;;;;;5032917;28;20039;-76
2021/03/02 12:16:48;;;;;;;19.27;10.57;;;15.60;52.10;;;;;;5034538;28;20045;-75
2021/03/02 12:19:14;;;;;;;18.20;8.70;;;15.60;51.50;;;;;;5033571;28;20041;-76
2021/03/02 12:21:40;;;;;;;12.38;7.50;;;15.70;51.00;;;;;;4998141;28;20067;-75
2021/03/02 12:24:06;;;;;;;17.20;7.88;;;15.80;50.70;;;;;;4999309;28;20040;-75
2021/03/02 12:26:32;;;;;;;14.80;8.60;;;;;;;;;;5036591;28;20041;-76
2021/03/02 12:28:59;;;;;;;17.35;8.57;;;15.80;50.10;;;;;;5031735;28;20047;-76
2021/03/02 12:31:24;;;;;;;17.92;8.88;;;15.70;50.30;;;;;;5037373;28;20079;-76
2021/03/02 12:33:50;;;;;;;16.27;8.48;;;15.70;50.90;;;;;;5038933;28;20045;-76
2021/03/02 12:36:16;;;;;;;16.73;8.43;;;15.90;51.80;;;;;;5040931;28;20041;-76
2021/03/02 12:38:42;;;;;;;15.32;8.13;;;16.00;51.60;;;;;;5038470;28;20127;-76
2021/03/02 12:41:11;;;;;;;19.98;8.57;;;16.10;50.60;;;;;;5036718;28;20119;-76
2021/03/02 12:43:39;;;;;;;15.45;8.52;;;16.20;50.20;;;;;;5036413;28;20025;-76
2021/03/02 12:46:05;;;;;;;17.90;8.70;;;16.10;50.00;;;;;;5037033;28;21439;-75
2021/03/02 12:48:31;;;;;;;14.25;8.32;;;16.00;50.60;;;;;;5041478;28;20071;-75
2021/03/02 12:50:57;;;;;;;18.23;9.15;;;16.10;49.70;;;;;;5035406;28;20112;-76
2021/03/02 12:53:23;;;;;;;16.92;9.40;;;16.10;50.40;;;;;;5038137;28;20037;-76